Latest Coastal Weather Observations for Cooktown

IDQ60701

Issued at 11:01 pm EST Saturday 31 January 2015 (issued every 10 minutes, with the page automatically refreshed every 10 minutes)

About coastal observations | Map of coastal stations | Coastal observations for QLD | Marine services | Other Formats
Station Details ID: 031209 Name: COOKTOWN AIRPORT Lat: -15.45 Lon: 145.19 Height: 4.8 m
Data from the previous 72 hours. | See also: Recent months at Cooktown
Date/Time
EST
Temp

°C
Wind Pressure Rain
since 9am
mm
Weather Cloud Vis
km
Sea
Height
m
Swell
Dir
 
Speed
knots
Gust
knots
hPa Trend Height
m
Period
s
Dir
31/11:00pm 24.4 W 4 5 1008.6 - 45.6 - Partly cloudy 10 - - - -
31/10:30pm 24.5 WNW 5 8 1009.0 - 45.6 - Partly cloudy 10 - - - -
31/10:01pm 24.7 NW 6 10 1008.9 - 45.6 - Partly cloudy 10 - - - -
31/10:00pm 24.7 NW 6 10 1008.9 - 45.6 - Partly cloudy 10 - - - -
31/09:57pm 24.7 NNW 5 10 1008.8 - 45.6 - Partly cloudy 10 - - - -
31/09:30pm 25.4 N 9 14 1008.4 - 40.8 - Partly cloudy 1 - - - -
31/09:00pm 25.9 SSW 4 5 1008.0 - 8.0 - Cloudy 1 - - - -
31/08:57pm 26.1 SW 4 5 1008.2 - 2.4 - Partly cloudy 5 - - - -
31/08:53pm 26.1 WSW 4 5 1008.1 - 0.6 - Partly cloudy 10 - - - -
31/08:30pm 25.9 W 3 4 1008.0 - 0.6 - Partly cloudy 10 - - - -
31/08:00pm 25.9 CALM 0 0 1007.7 - 0.6 - Partly cloudy 10 - - - -
31/07:30pm 25.9 SW 1 5 1006.8 - 0.6 - Partly cloudy 10 - - - -
31/07:12pm 26.0 N 2 3 1006.7 - 0.6 - Partly cloudy 10 - - - -
31/07:00pm 26.0 N 3 5 1006.6 - 0.6 - Partly cloudy 10 - - - -
31/06:33pm 25.7 WSW 4 6 1006.4 - 0.6 - Partly cloudy 10 - - - -
31/06:30pm 25.8 WSW 4 6 1006.5 - 0.6 - Partly cloudy 10 - - - -
31/06:00pm 26.0 N 4 6 1005.8 - 0.6 - Cloudy 10 - - - -
31/05:30pm 26.3 NNW 1 4 1005.8 - 0.6 - Partly cloudy 10 - - - -
31/05:00pm 27.1 S 5 9 1005.1 - 0.0 - Partly cloudy 9 - - - -
31/04:38pm 28.6 SSE 5 10 1005.3 - 0.0 - Partly cloudy 10 - - - -
31/04:30pm 28.7 SE 6 10 1005.2 - 0.0 - Partly cloudy 10 - - - -
31/04:00pm 28.9 E 11 14 1004.4 - 0.0 - Partly cloudy 10 - - - -
31/03:30pm 29.2 E 15 20 1004.7 - 0.0 - - 10 - - - -
31/03:00pm 30.7 E 13 18 1004.6 - 0.0 - Partly cloudy 10 - - - -
31/02:30pm 31.1 E 13 16 1004.6 - 0.0 - - 10 - - - -
31/02:00pm 31.0 E 14 17 1004.8 - 0.0 - - 10 - - - -
31/01:30pm 31.2 E 13 16 1005.1 - 0.0 - - 10 - - - -
31/01:00pm 31.3 E 12 16 1005.5 - 0.0 - - 10 - - - -
31/12:30pm 31.6 E 11 14 1005.9 - 0.0 - - 10 - - - -
31/12:00pm 31.3 E 11 15 1006.1 - 0.0 - - 10 - - - -
31/11:30am 31.3 E 10 13 1006.5 - 0.0 - - 10 - - - -
31/11:00am 31.4 E 8 11 1006.9 - 0.0 - Partly cloudy 10 - - - -
31/10:30am 30.9 NE 5 8 1007.1 - 0.0 - - 10 - - - -
31/10:00am 30.7 E 4 7 1007.4 - 0.0 - Partly cloudy 10 - - - -
31/09:30am 30.3 SE 4 6 1007.6 - 0.0 - Partly cloudy 10 - - - -
31/09:00am 29.8 SSE 4 7 1007.5 F 0.0 Fine Mostly clear 40 - - - -
31/08:30am 29.1 E 1 4 1007.9 - 0.0 - - 10 - - - -
31/08:00am 28.5 SE 1 4 1008.1 - 0.0 - - 10 - - - -
31/07:30am 26.5 WNW 2 4 1007.8 - 0.0 - - 10 - - - -
31/07:00am 24.8 WNW 4 6 1007.3 - 0.0 - - 10 - - - -
31/06:30am 24.4 WNW 4 4 1006.8 - 0.0 - - 10 - - - -
31/06:00am 24.2 CALM 0 4 1006.7 - 0.0 - - 10 - - - -
31/05:30am 24.8 CALM 0 1 1006.6 - 0.0 - Partly cloudy 10 - - - -
31/05:00am 24.8 NW 4 5 1006.3 - 0.0 - Partly cloudy 10 - - - -
31/04:30am 25.1 CALM 0 0 1006.4 - 0.0 - Partly cloudy 10 - - - -
31/04:00am 25.3 CALM 0 0 1006.0 - 0.0 - - 10 - - - -
31/03:30am 25.7 N 2 4 1005.7 - 0.0 - Partly cloudy 10 - - - -
31/03:00am 26.1 CALM 0 0 1005.7 - 0.0 - Cloudy 10 - - - -
31/02:30am 26.3 CALM 0 0 1006.0 - 0.0 - Cloudy 10 - - - -
31/02:00am 26.2 CALM 0 0 1006.2 - 0.0 - Cloudy 10 - - - -
31/01:30am 25.9 CALM 0 0 1006.4 - 0.0 - Partly cloudy 10 - - - -
31/01:00am 25.8 CALM 0 0 1006.5 - 0.0 - - 10 - - - -
31/12:30am 26.2 CALM 0 0 1006.8 - 0.0 - - 10 - - - -
31/12:00am 26.8 CALM 0 0 1006.8 - 0.0 - Cloudy 10 - - - -
 
Date/Time
EST
Temp

°C
Wind Pressure Rain
since 9am
mm
Weather Cloud Vis
km
Sea
Height
m
Swell
Dir
 
Speed
knots
Gust
knots
hPa Trend Height
m
Period
s
Dir
30/11:30pm 27.0 CALM 0 0 1007.2 - 0.0 - Partly cloudy 10 - - - -
30/11:00pm 26.7 CALM 0 0 1007.1 - 0.0 - Partly cloudy 10 - - - -
30/10:30pm 27.0 CALM 0 0 1006.9 - 0.0 - Partly cloudy 10 - - - -
30/10:00pm 27.2 CALM 0 0 1006.6 - 0.0 - Partly cloudy 10 - - - -
30/09:30pm 27.2 NNW 2 3 1006.5 - 0.0 - Partly cloudy 10 - - - -
30/09:00pm 27.6 NNW 3 4 1006.2 - 0.0 - Cloudy 10 - - - -
30/08:30pm 28.0 CALM 0 0 1006.1 - 0.0 - Partly cloudy 10 - - - -
30/08:00pm 27.9 NE 1 4 1005.6 - 0.0 - - 10 - - - -
30/07:30pm 28.0 E 5 6 1005.2 - 0.0 - - 10 - - - -
30/07:00pm 28.7 NNE 5 7 1005.1 - 0.0 - Partly cloudy 10 - - - -
30/06:30pm 29.0 ENE 7 10 1004.8 - 0.0 - Partly cloudy 10 - - - -
30/06:00pm 29.4 ENE 6 10 1004.5 - 0.0 - Cloudy 10 - - - -
30/05:30pm 30.1 ENE 9 13 1004.0 - 0.0 - Partly cloudy 10 - - - -
30/05:00pm 30.7 ENE 10 15 1003.4 - 0.0 - Partly cloudy 10 - - - -
30/04:30pm 30.9 ENE 9 12 1003.5 - 0.0 - - 10 - - - -
30/04:00pm 31.3 E 12 16 1003.1 - 0.0 - - 10 - - - -
30/03:30pm 31.4 E 13 17 1003.1 - 0.0 - Partly cloudy 10 - - - -
30/03:00pm 31.5 E 14 20 1003.0 F 0.0 Fine Mostly clear 40 - - - -
30/02:30pm 31.8 E 15 19 1003.2 - 0.0 - - 10 - - - -
30/02:00pm 32.8 E 13 16 1003.3 - 0.0 - - 10 - - - -
30/01:30pm 32.5 E 14 18 1003.5 - 0.0 - - 10 - - - -
30/01:00pm 33.0 E 12 15 1003.9 - 0.0 - - 10 - - - -
30/12:30pm 32.2 E 11 14 1004.4 - 0.0 - - 10 - - - -
30/12:00pm 32.7 E 12 16 1004.7 - 0.0 - - 10 - - - -
30/11:30am 34.1 S 6 11 1005.2 - 0.0 - - 10 - - - -
30/11:00am 33.3 WSW 6 10 1005.5 - 0.0 - - 10 - - - -
30/10:30am 32.5 S 4 8 1005.8 - 0.0 - - 10 - - - -
30/10:00am 31.9 WSW 6 11 1006.0 - 0.0 - - 10 - - - -
30/09:30am 31.0 W 6 10 1006.2 - 0.0 - - 10 - - - -
30/09:00am 30.0 SW 6 8 1006.0 R 0.0 Fine Mostly clear 40 - - - -
30/08:30am 29.0 W 3 6 1006.1 - 0.0 - - 10 - - - -
30/08:00am 28.2 W 4 6 1006.1 - 0.0 - - 10 - - - -
30/07:30am 27.0 WNW 4 5 1005.7 - 0.0 - - 10 - - - -
30/07:00am 25.5 CALM 0 0 1005.4 - 0.0 - - 10 - - - -
30/06:30am 24.6 CALM 0 0 1005.2 - 0.0 - - 10 - - - -
30/06:00am 24.4 W 2 3 1004.8 - 0.0 - - 10 - - - -
30/05:30am 24.4 NW 4 4 1004.5 - 0.0 - - 10 - - - -
30/05:00am 24.7 CALM 0 3 1004.3 - 0.0 - - 10 - - - -
30/04:30am 24.8 W 3 4 1004.2 - 0.0 - - 10 - - - -
30/04:00am 24.7 WNW 4 4 1004.1 - 0.0 - - 10 - - - -
30/03:30am 24.9 CALM 0 0 1004.0 - 0.0 - - 10 - - - -
30/03:00am 25.1 WNW 4 4 1003.8 - 0.0 - - 10 - - - -
30/02:30am 25.1 NW 3 5 1004.0 - 0.0 - - 10 - - - -
30/02:00am 25.6 WNW 2 3 1004.2 - 0.0 - - 10 - - - -
30/01:30am 25.7 NW 4 4 1004.4 - 0.0 - - 10 - - - -
30/01:00am 26.0 NW 3 5 1004.6 - 0.0 - - 10 - - - -
30/12:30am 26.1 CALM 0 0 1004.9 - 0.0 - - 10 - - - -
30/12:00am 26.9 CALM 0 3 1004.9 - 0.0 - - 10 - - - -
 
Date/Time
EST
Temp

°C
Wind Pressure Rain
since 9am
mm
Weather Cloud Vis
km
Sea
Height
m
Swell
Dir
 
Speed
knots
Gust
knots
hPa Trend Height
m
Period
s
Dir
29/11:30pm 28.0 N 1 3 1005.1 - 0.0 - - 10 - - - -
29/11:00pm 28.4 SSW 6 9 1005.0 - 0.0 - - 10 - - - -
29/10:30pm 28.3 W 5 6 1005.0 - 0.0 - - 10 - - - -
29/10:00pm 28.0 SE 3 4 1004.5 - 0.0 - - 10 - - - -
29/09:30pm 28.7 S 3 6 1004.1 - 0.0 - - 10 - - - -
29/09:00pm 28.9 SSE 4 5 1003.6 - 0.0 - - 10 - - - -
29/08:30pm 29.4 S 5 7 1003.2 - 0.0 - - 10 - - - -
29/08:00pm 30.2 SSW 4 6 1002.9 - 0.0 - - 10 - - - -
29/07:30pm 30.7 CALM 0 0 1002.4 - 0.0 - - 10 - - - -
29/07:00pm 32.0 SSE 1 3 1001.7 - 0.0 - - 10 - - - -
29/06:30pm 33.9 SSE 4 5 1001.2 - 0.0 - - 10 - - - -
29/06:00pm 36.6 W 5 7 1000.7 - 0.0 - - 10 - - - -
29/05:30pm 37.2 W 5 8 1000.7 - 0.0 - - 10 - - - -
29/05:00pm 37.3 W 6 9 1000.3 - 0.0 - - 10 - - - -
29/04:30pm 37.4 NW 8 11 1000.2 - 0.0 - - 10 - - - -
29/04:00pm 37.3 WNW 7 12 1000.2 - 0.0 - - 10 - - - -
29/03:30pm 37.7 W 6 12 1000.4 - 0.0 - - 10 - - - -
29/03:00pm 37.1 WNW 10 13 1000.6 F 0.0 Fine Mostly clear 40 - - - -
29/02:30pm 37.2 W 4 7 1001.0 - 0.0 - - 10 - - - -
29/02:00pm 36.5 NW 9 13 1001.5 - 0.0 - - 10 - - - -
29/01:30pm 36.4 WSW 6 11 1001.9 - 0.0 - - 10 - - - -
29/01:00pm 36.0 WNW 8 17 1002.4 - 0.0 - - 10 - - - -
29/12:30pm 35.3 NW 10 14 1002.7 - 0.0 - - 10 - - - -
29/12:00pm 34.5 NW 11 17 1003.2 - 0.0 - - 10 - - - -
29/11:30am 33.5 WNW 10 14 1003.4 - 0.0 - - 10 - - - -
29/11:00am 32.9 WNW 11 16 1003.8 - 0.0 - - 10 - - - -
29/10:30am 32.5 WNW 11 16 1003.8 - 0.0 - - 10 - - - -
29/10:00am 31.0 WNW 11 16 1003.9 - 0.0 - - 10 - - - -
29/09:30am 30.1 WNW 11 16 1004.0 - 0.0 - - 10 - - - -
29/09:00am 29.7 WNW 9 12 1003.9 R 0.0 Fine Mostly clear 40 - - - -
29/08:30am 28.6 WNW 10 14 1004.0 - 0.0 - - 10 - - - -
29/08:00am 27.6 WNW 8 12 1003.8 - 0.0 - - 10 - - - -
29/07:30am 26.7 WNW 8 11 1003.6 - 0.0 - - 10 - - - -
29/07:00am 25.9 NW 7 9 1003.3 - 0.0 - - 10 - - - -
29/06:30am 25.0 WNW 5 7 1003.0 - 0.0 - - 10 - - - -
29/06:00am 25.2 W 5 7 1002.5 - 0.0 - - 10 - - - -
29/05:30am 25.2 W 5 8 1002.4 - 0.0 - - 10 - - - -
29/05:00am 25.2 WNW 5 7 1002.4 - 0.0 - - 10 - - - -
29/04:30am 25.0 WNW 5 6 1002.2 - 0.0 - - 10 - - - -
29/04:00am 25.3 W 4 6 1002.4 - 0.0 - - 10 - - - -
29/03:30am 24.9 NW 6 7 1002.4 - 0.0 - - 10 - - - -
29/03:00am 26.0 NW 7 8 1002.3 - 0.0 - - 10 - - - -
29/02:30am 26.1 NW 7 9 1002.4 - 0.0 - - 10 - - - -
29/02:00am 26.3 NW 7 9 1002.5 - 0.0 - Partly cloudy 10 - - - -
29/01:30am 26.8 NW 5 7 1002.7 - 0.0 - Partly cloudy 10 - - - -
29/01:00am 27.3 NW 6 8 1003.0 - 0.0 - Partly cloudy 10 - - - -
29/12:30am 27.4 WNW 5 7 1003.1 - 0.0 - Cloudy 10 - - - -
29/12:00am 27.7 W 4 6 1003.3 - 0.0 - Cloudy 10 - - - -
 
Date/Time
EST
Temp

°C
Wind Pressure Rain
since 9am
mm
Weather Cloud Vis
km
Sea
Height
m
Swell
Dir
 
Speed
knots
Gust
knots
hPa Trend Height
m
Period
s
Dir
28/11:30pm 27.3 NW 6 7 1003.7 - 0.0 - - 10 - - - -

Other Formats:

Comma delimited format used in spreadsheet applications
http://www.bom.gov.au/fwo/IDQ60701/IDQ60701.95283.axf

JavaScript Object Notation format (JSON) in row-major order
http://www.bom.gov.au/fwo/IDQ60701/IDQ60701.95283.json